createdAt,value
2022-11-29T00:02:04.332Z,101699.78
2022-11-29T00:04:30.920Z,101703.00
2022-11-29T00:06:57.423Z,101704.59
2022-11-29T00:09:24.023Z,101700.09
2022-11-29T00:12:09.148Z,101710.69
2022-11-29T00:14:35.634Z,101715.22
2022-11-29T00:17:03.269Z,101713.59
2022-11-29T00:19:31.158Z,101709.09
2022-11-29T00:21:59.214Z,101714.38
2022-11-29T00:24:25.962Z,101708.28
2022-11-29T00:26:52.693Z,101713.34
2022-11-29T00:29:19.232Z,101719.44
2022-11-29T00:31:45.768Z,101721.31
2022-11-29T00:34:12.991Z,101722.09
2022-11-29T00:36:40.068Z,101715.22
2022-11-29T00:39:07.093Z,101729.00
2022-11-29T00:41:33.769Z,101718.91
2022-11-29T00:44:00.588Z,101723.41
2022-11-29T00:46:27.160Z,101721.78
2022-11-29T00:48:53.818Z,101714.09
2022-11-29T00:51:20.399Z,101717.78
2022-11-29T00:53:47.022Z,101711.91
2022-11-29T00:56:14.013Z,101714.56
2022-11-29T00:58:43.490Z,101713.78
2022-11-29T01:01:11.181Z,101720.09
2022-11-29T01:03:38.276Z,101724.38
2022-11-29T01:06:07.993Z,101717.22
2022-11-29T01:08:35.264Z,101713.78
2022-11-29T01:11:13.154Z,101719.88
2022-11-29T01:13:40.612Z,101726.22
2022-11-29T01:16:07.707Z,101728.88
2022-11-29T01:18:34.864Z,101734.41
2022-11-29T01:21:08.241Z,101735.44
2022-11-29T01:23:35.776Z,101731.78
2022-11-29T01:26:06.039Z,101736.53
2022-11-29T01:28:33.415Z,101735.44
2022-11-29T01:31:00.145Z,101736.53
2022-11-29T01:33:26.726Z,101739.97
2022-11-29T01:35:54.535Z,101745.03
2022-11-29T01:38:21.976Z,101752.97
2022-11-29T01:41:01.680Z,101746.06
2022-11-29T01:43:29.059Z,101751.63
2022-11-29T01:45:56.297Z,101751.88
2022-11-29T01:48:26.681Z,101751.06
2022-11-29T01:50:54.989Z,101747.59
2022-11-29T01:53:22.347Z,101751.06
2022-11-29T01:55:54.196Z,101760.06
2022-11-29T01:58:21.424Z,101763.50
2022-11-29T02:00:48.420Z,101760.84
2022-11-29T02:03:17.043Z,101760.06
2022-11-29T02:05:47.823Z,101770.66
2022-11-29T02:08:19.983Z,101758.47
2022-11-29T02:11:20.433Z,101764.81
2022-11-29T02:14:12.294Z,101759.75
2022-11-29T02:17:10.479Z,101757.59
2022-11-29T02:20:14.412Z,101765.31
2022-11-29T02:23:06.669Z,101764.50
2022-11-29T02:25:35.851Z,101767.41
2022-11-29T02:28:18.528Z,101767.66
2022-11-29T02:31:20.455Z,101765.78
2022-11-29T02:34:10.870Z,101769.50
2022-11-29T02:37:18.491Z,101772.16
2022-11-29T02:40:22.166Z,101770.28
2022-11-29T02:43:19.349Z,101775.84
2022-11-29T02:45:54.335Z,101773.47
2022-11-29T02:48:42.661Z,101777.13
2022-11-29T02:51:22.611Z,101782.69
2022-11-29T02:54:20.484Z,101782.13
2022-11-29T02:57:14.591Z,101789.50
2022-11-29T02:59:47.194Z,101795.09
2022-11-29T03:02:32.443Z,101798.28
2022-11-29T03:05:12.631Z,101808.06
2022-11-29T03:08:03.463Z,101805.91
2022-11-29T03:10:43.510Z,101805.34
2022-11-29T03:13:24.020Z,101803.50
2022-11-29T03:15:59.810Z,101798.19
2022-11-29T03:18:51.523Z,101805.13
2022-11-29T03:21:31.327Z,101810.66
2022-11-29T03:24:04.894Z,101812.50
2022-11-29T03:26:41.546Z,101817.53
2022-11-29T03:29:26.586Z,101817.31
2022-11-29T03:32:02.442Z,101822.28
2022-11-29T03:35:02.933Z,101824.94
2022-11-29T03:37:40.435Z,101824.13
2022-11-29T03:40:11.769Z,101829.44
2022-11-29T03:43:14.170Z,101829.69
2022-11-29T03:46:02.895Z,101835.25
2022-11-29T03:48:41.011Z,101835.47
2022-11-29T03:51:18.824Z,101833.28
2022-11-29T03:53:51.998Z,101839.91
2022-11-29T03:56:34.708Z,101846.25
2022-11-29T03:59:07.304Z,101847.28
2022-11-29T04:02:10.998Z,101855.22
2022-11-29T04:05:06.679Z,101850.16
2022-11-29T04:08:01.928Z,101849.38
2022-11-29T04:10:51.814Z,101857.56
2022-11-29T04:14:05.763Z,101857.25
2022-11-29T04:17:12.688Z,101863.34
2022-11-29T04:20:03.465Z,101854.09
2022-11-29T04:22:52.773Z,101858.38
2022-11-29T04:25:49.410Z,101862.63
2022-11-29T04:28:23.333Z,101862.56
2022-11-29T04:31:33.364Z,101870.72
2022-11-29T04:34:20.477Z,101867.53
2022-11-29T04:37:24.425Z,101868.31
2022-11-29T04:40:20.352Z,101872.81
2022-11-29T04:43:03.225Z,101869.38
2022-11-29T04:45:48.143Z,101879.16
2022-11-29T04:48:32.695Z,101872.25
2022-11-29T04:51:26.272Z,101878.13
2022-11-29T04:54:08.149Z,101880.28
2022-11-29T04:56:45.574Z,101883.75
2022-11-29T04:59:38.084Z,101887.19
2022-11-29T05:02:10.695Z,101886.94
2022-11-29T05:04:53.528Z,101890.41
2022-11-29T05:07:51.122Z,101897.53
2022-11-29T05:10:39.118Z,101901.22
2022-11-29T05:13:18.392Z,101899.63
2022-11-29T05:16:06.997Z,101908.59
2022-11-29T05:18:57.662Z,101912.31
2022-11-29T05:22:01.959Z,101912.31
2022-11-29T05:24:45.740Z,101914.97
2022-11-29T05:27:33.383Z,101918.97
2022-11-29T05:30:06.592Z,101921.63
2022-11-29T05:32:45.055Z,101931.97
2022-11-29T05:35:29.522Z,101925.63
2022-11-29T05:38:23.404Z,101930.69
2022-11-29T05:40:59.422Z,101929.63
2022-11-29T05:43:56.297Z,101927.81
2022-11-29T05:46:31.159Z,101937.56
2022-11-29T05:49:14.016Z,101942.06
2022-11-29T05:51:50.465Z,101937.56
2022-11-29T05:54:42.456Z,101950.81
2022-11-29T05:57:33.808Z,101948.88
2022-11-29T06:00:05.572Z,101960.78
2022-11-29T06:03:00.053Z,101962.84
2022-11-29T06:05:35.971Z,101962.06
2022-11-29T06:08:13.278Z,101967.13
2022-11-29T06:10:52.192Z,101966.88
2022-11-29T06:13:50.955Z,101963.41
2022-11-29T06:16:25.124Z,101965.84
2022-11-29T06:19:30.567Z,101962.41
2022-11-29T06:22:27.027Z,101964.22
2022-11-29T06:25:11.010Z,101971.13
2022-11-29T06:28:07.364Z,101976.66
2022-11-29T06:30:48.970Z,101975.31
2022-11-29T06:33:25.043Z,101978.97
2022-11-29T06:36:17.767Z,101982.47
2022-11-29T06:38:44.838Z,101991.19
2022-11-29T06:41:19.470Z,101993.03
2022-11-29T06:43:46.349Z,101990.41
2022-11-29T06:46:25.174Z,101991.19
2022-11-29T06:49:02.094Z,101996.50
2022-11-29T06:51:36.245Z,102002.03
2022-11-29T06:54:10.852Z,102002.81
2022-11-29T06:56:44.294Z,102009.50
2022-11-29T06:59:34.477Z,102016.06
2022-11-29T07:02:10.994Z,102010.75
2022-11-29T07:04:51.066Z,102024.00
2022-11-29T07:07:22.941Z,102019.75
2022-11-29T07:09:52.238Z,102023.69
2022-11-29T07:12:19.318Z,102026.00
2022-11-29T07:14:46.955Z,102026.25
2022-11-29T07:17:30.959Z,102032.03
2022-11-29T07:20:10.010Z,102034.91
2022-11-29T07:23:03.012Z,102047.34
2022-11-29T07:25:39.954Z,102049.41
2022-11-29T07:28:31.842Z,102059.75
2022-11-29T07:31:16.282Z,102065.63
2022-11-29T07:33:54.759Z,102064.25
2022-11-29T07:36:38.211Z,102064.03
2022-11-29T07:39:22.716Z,102064.94
2022-11-29T07:41:55.168Z,102078.81
2022-11-29T07:44:36.243Z,102075.78
2022-11-29T07:47:02.920Z,102077.00
2022-11-29T07:49:32.647Z,102085.13
2022-11-29T07:51:59.354Z,102082.34
2022-11-29T07:54:26.170Z,102080.34
2022-11-29T07:56:52.823Z,102088.13
2022-11-29T07:59:20.136Z,102097.44
2022-11-29T08:01:47.131Z,102087.16
2022-11-29T08:04:14.191Z,102088.28
2022-11-29T08:06:40.925Z,102096.38
2022-11-29T08:09:07.704Z,102097.75
2022-11-29T08:11:34.303Z,102098.88
2022-11-29T08:14:03.042Z,102104.22
2022-11-29T08:16:30.304Z,102111.38
2022-11-29T08:18:56.938Z,102110.09
2022-11-29T08:21:23.672Z,102106.72
2022-11-29T08:23:51.557Z,102117.66
2022-11-29T08:26:19.376Z,102115.31
2022-11-29T08:28:51.884Z,102123.13
2022-11-29T08:31:20.452Z,102115.72
2022-11-29T08:33:50.542Z,102111.31
2022-11-29T08:36:20.967Z,102116.66
2022-11-29T08:38:48.397Z,102112.47
2022-11-29T08:41:16.818Z,102110.38
2022-11-29T08:43:44.401Z,102118.13
2022-11-29T08:46:17.969Z,102114.97
2022-11-29T08:48:45.113Z,102118.72
2022-11-29T08:51:11.873Z,102117.47
2022-11-29T08:53:41.661Z,102119.16
2022-11-29T08:59:04.321Z,102128.78
2022-11-29T09:01:31.055Z,102130.38
2022-11-29T09:04:02.982Z,102134.38
2022-11-29T09:06:37.626Z,102124.56
2022-11-29T09:09:06.368Z,102142.66
2022-11-29T09:11:34.692Z,102129.72
2022-11-29T09:14:04.168Z,102144.03
2022-11-29T09:16:33.806Z,102135.69
2022-11-29T09:19:00.675Z,102133.81
2022-11-29T09:21:29.526Z,102142.66
2022-11-29T09:23:59.351Z,102141.38
2022-11-29T09:26:30.059Z,102148.59
2022-11-29T09:29:01.144Z,102152.63
2022-11-29T09:31:28.986Z,102148.72
2022-11-29T09:33:57.094Z,102151.94
2022-11-29T09:36:28.494Z,102166.66
2022-11-29T09:38:56.807Z,102161.38
2022-11-29T09:41:48.751Z,102164.88
2022-11-29T09:44:38.739Z,102175.66
2022-11-29T09:47:28.292Z,102170.34
2022-11-29T09:50:24.486Z,102175.66
2022-11-29T09:53:26.770Z,102176.19
2022-11-29T09:56:16.053Z,102184.50
2022-11-29T09:58:57.210Z,102189.38
2022-11-29T10:01:30.938Z,102193.38
2022-11-29T10:04:05.971Z,102193.94
2022-11-29T10:06:41.016Z,102187.63
2022-11-29T10:09:17.332Z,102185.31
2022-11-29T10:11:57.079Z,102196.47
2022-11-29T10:14:29.660Z,102197.78
2022-11-29T10:17:18.237Z,102197.22
2022-11-29T10:19:50.753Z,102194.06
2022-11-29T10:22:39.148Z,102192.47
2022-11-29T10:25:08.697Z,102191.03
2022-11-29T10:27:39.906Z,102192.41
2022-11-29T10:30:14.811Z,102186.94
2022-11-29T10:32:44.227Z,102187.00
2022-11-29T10:35:18.367Z,102184.91
2022-11-29T10:38:22.293Z,102189.50
2022-11-29T10:40:39.778Z,102197.47
2022-11-29T10:43:06.465Z,102186.56
2022-11-29T10:45:50.021Z,102195.97
2022-11-29T10:48:19.361Z,102195.41
2022-11-29T10:50:48.870Z,102190.63
2022-11-29T10:53:20.246Z,102193.44
2022-11-29T10:55:51.977Z,102189.19
2022-11-29T10:58:27.894Z,102187.09
2022-11-29T11:00:58.686Z,102185.53
2022-11-29T11:03:33.983Z,102189.53
2022-11-29T11:06:00.573Z,102184.31
2022-11-29T11:08:28.828Z,102182.19
2022-11-29T11:11:01.236Z,102185.41
2022-11-29T11:13:31.030Z,102190.72
2022-11-29T11:16:18.412Z,102191.44
2022-11-29T11:18:49.938Z,102187.50
2022-11-29T11:21:19.903Z,102180.69
2022-11-29T11:23:54.005Z,102182.91
2022-11-29T11:26:22.410Z,102181.63
2022-11-29T11:29:03.260Z,102186.44
2022-11-29T11:31:34.518Z,102187.09
2022-11-29T11:34:34.260Z,102192.19
2022-11-29T11:37:18.496Z,102201.03
2022-11-29T11:39:47.847Z,102196.44
2022-11-29T11:42:38.676Z,102197.56
2022-11-29T11:45:27.958Z,102198.84
2022-11-29T11:48:13.752Z,102198.44
2022-11-29T11:50:44.725Z,102198.97
2022-11-29T11:53:29.184Z,102199.53
2022-11-29T11:56:00.577Z,102201.41
2022-11-29T11:58:29.586Z,102205.09
2022-11-29T12:01:13.537Z,102209.06
2022-11-29T12:03:57.040Z,102207.44
2022-11-29T12:06:36.288Z,102205.06
2022-11-29T12:09:05.731Z,102210.63
2022-11-29T12:11:41.298Z,102213.53
2022-11-29T12:14:16.178Z,102213.03
2022-11-29T12:16:43.388Z,102211.94
2022-11-29T12:19:21.744Z,102214.88
2022-11-29T12:21:53.157Z,102217.84
2022-11-29T12:24:37.995Z,102223.22
2022-11-29T12:27:06.195Z,102225.59
2022-11-29T12:29:34.571Z,102230.94
2022-11-29T12:32:04.238Z,102226.44
2022-11-29T12:34:49.472Z,102239.78
2022-11-29T12:37:57.901Z,102236.91
2022-11-29T12:41:06.450Z,102232.69
2022-11-29T12:43:49.574Z,102238.31
2022-11-29T12:46:26.043Z,102240.41
2022-11-29T12:49:05.619Z,102246.59
2022-11-29T12:52:02.052Z,102253.31
2022-11-29T12:54:58.310Z,102257.03
2022-11-29T12:57:49.426Z,102259.72
2022-11-29T13:00:18.997Z,102255.47
2022-11-29T13:02:54.609Z,102261.84
2022-11-29T13:05:41.558Z,102264.25
2022-11-29T13:08:28.435Z,102262.66
2022-11-29T13:11:06.978Z,102254.16
2022-11-29T13:13:50.012Z,102257.88
2022-11-29T13:16:54.342Z,102261.59
2022-11-29T13:19:55.573Z,102258.97
2022-11-29T13:22:42.888Z,102270.22
2022-11-29T13:25:26.874Z,102270.97
2022-11-29T13:28:02.439Z,102262.69
2022-11-29T13:30:29.506Z,102264.81
2022-11-29T13:33:06.846Z,102254.94
2022-11-29T13:35:41.755Z,102262.09
2022-11-29T13:38:19.083Z,102272.22
2022-11-29T13:40:52.191Z,102274.09
2022-11-29T13:43:41.604Z,102271.19
2022-11-29T13:46:26.454Z,102272.78
2022-11-29T13:48:54.708Z,102279.72
2022-11-29T13:51:25.889Z,102276.25
2022-11-29T13:53:56.897Z,102271.47
2022-11-29T13:56:33.580Z,102274.13
2022-11-29T13:59:03.621Z,102274.44
2022-11-29T14:01:42.500Z,102277.66
2022-11-29T14:04:26.636Z,102274.19
2022-11-29T14:07:04.283Z,102270.69
2022-11-29T14:09:47.533Z,102273.59
2022-11-29T14:12:21.201Z,102268.56
2022-11-29T14:15:05.785Z,102272.81
2022-11-29T14:17:50.687Z,102275.19
2022-11-29T14:20:23.340Z,102269.31
2022-11-29T14:23:08.004Z,102277.31
2022-11-29T14:26:00.987Z,102277.06
2022-11-29T14:28:38.749Z,102271.69
2022-11-29T14:31:07.379Z,102279.34
2022-11-29T14:34:16.592Z,102272.69
2022-11-29T14:36:54.825Z,102282.22
2022-11-29T14:39:28.094Z,102278.97
2022-11-29T14:42:17.094Z,102288.00
2022-11-29T14:44:53.027Z,102288.50
2022-11-29T14:47:34.648Z,102291.94
2022-11-29T14:50:07.588Z,102292.91
2022-11-29T14:52:38.964Z,102294.19
2022-11-29T14:55:18.703Z,102295.50
2022-11-29T14:57:49.639Z,102290.44
2022-11-29T15:00:22.739Z,102290.94
2022-11-29T15:03:12.116Z,102291.69
2022-11-29T15:05:43.579Z,102292.16
2022-11-29T15:08:28.113Z,102283.84
2022-11-29T15:11:06.467Z,102288.06
2022-11-29T15:13:41.069Z,102284.03
2022-11-29T15:16:38.846Z,102282.22
2022-11-29T15:19:41.736Z,102291.72
2022-11-29T15:22:18.514Z,102293.75
2022-11-29T15:25:14.510Z,102291.91
2022-11-29T15:30:52.507Z,102299.19
2022-11-29T15:33:26.201Z,102304.44
2022-11-29T15:35:57.065Z,102305.19
2022-11-29T15:38:27.549Z,102303.00
2022-11-29T15:40:58.764Z,102302.19
2022-11-29T15:43:37.341Z,102302.69
2022-11-29T15:46:06.622Z,102308.50
2022-11-29T15:48:36.160Z,102307.69
2022-11-29T15:51:18.724Z,102320.41
2022-11-29T15:54:12.371Z,102326.19
2022-11-29T15:56:48.092Z,102321.38
2022-11-29T15:59:36.024Z,102322.41
2022-11-29T16:02:18.618Z,102326.69
2022-11-29T16:04:51.105Z,102327.03
2022-11-29T16:07:21.509Z,102327.81
2022-11-29T16:09:56.619Z,102325.72
2022-11-29T16:12:26.314Z,102325.72
2022-11-29T16:14:57.934Z,102334.50
2022-11-29T16:17:32.132Z,102339.00
2022-11-29T16:20:19.850Z,102335.28
2022-11-29T16:22:49.154Z,102333.47
2022-11-29T16:25:21.526Z,102334.25
2022-11-29T16:27:55.028Z,102338.28
2022-11-29T16:30:25.893Z,102329.50
2022-11-29T16:33:00.585Z,102331.84
2022-11-29T16:35:37.580Z,102333.69
2022-11-29T16:38:06.258Z,102341.09
2022-11-29T16:40:36.540Z,102332.06
2022-11-29T16:43:06.595Z,102335.56
2022-11-29T16:45:36.528Z,102339.00
2022-11-29T16:48:24.516Z,102342.69
2022-11-29T16:51:19.344Z,102343.25
2022-11-29T16:53:55.029Z,102342.47
2022-11-29T16:56:26.135Z,102342.69
2022-11-29T16:59:25.482Z,102341.91
2022-11-29T17:01:43.368Z,102339.81
2022-11-29T17:04:09.884Z,102342.22
2022-11-29T17:06:37.110Z,102343.25
2022-11-29T17:09:04.404Z,102343.59
2022-11-29T17:11:32.553Z,102341.72
2022-11-29T17:13:59.285Z,102341.50
2022-11-29T17:16:26.022Z,102355.84
2022-11-29T17:18:53.018Z,102349.41
2022-11-29T17:21:21.397Z,102348.84
2022-11-29T17:23:48.835Z,102354.94
2022-11-29T17:26:15.595Z,102359.75
2022-11-29T17:28:47.350Z,102352.63
2022-11-29T17:31:16.276Z,102362.19
2022-11-29T17:33:43.316Z,102356.88
2022-11-29T17:36:12.616Z,102355.00
2022-11-29T17:38:39.156Z,102362.19
2022-11-29T17:41:08.512Z,102367.72
2022-11-29T17:43:36.719Z,102366.69
2022-11-29T17:46:17.251Z,102365.63
2022-11-29T17:48:46.193Z,102370.38
2022-11-29T17:51:43.608Z,102366.69
2022-11-29T17:54:04.488Z,102370.94
2022-11-29T17:56:31.375Z,102368.56
2022-11-29T17:59:00.245Z,102372.47
2022-11-29T18:01:29.159Z,102374.56
2022-11-29T18:03:58.086Z,102376.75
2022-11-29T18:06:27.164Z,102374.34
2022-11-29T18:08:56.649Z,102375.97
2022-11-29T18:11:24.859Z,102375.69
2022-11-29T18:13:53.678Z,102381.50
2022-11-29T18:16:35.268Z,102389.47
2022-11-29T18:19:08.308Z,102393.16
2022-11-29T18:21:35.645Z,102391.56
2022-11-29T18:24:04.356Z,102399.53
2022-11-29T18:26:32.901Z,102395.25
2022-11-29T18:28:59.953Z,102398.97
2022-11-29T18:31:29.765Z,102397.91
2022-11-29T18:34:05.981Z,102405.09
2022-11-29T18:36:35.446Z,102399.31
2022-11-29T18:39:05.051Z,102398.81
2022-11-29T18:41:32.110Z,102399.59
2022-11-29T18:44:02.954Z,102398.81
2022-11-29T18:46:33.059Z,102407.28
2022-11-29T18:49:01.330Z,102404.63
2022-11-29T18:51:29.847Z,102407.03
2022-11-29T18:53:57.088Z,102404.63
2022-11-29T18:56:26.000Z,102406.22
2022-11-29T18:58:58.506Z,102415.81
2022-11-29T19:01:28.086Z,102413.41
2022-11-29T19:03:56.994Z,102407.50
2022-11-29T19:06:27.940Z,102413.63
2022-11-29T19:08:54.850Z,102421.59
2022-11-29T19:11:23.536Z,102426.69
2022-11-29T19:13:56.805Z,102426.09
2022-11-29T19:16:25.647Z,102415.16
2022-11-29T19:18:54.895Z,102414.91
2022-11-29T19:21:23.047Z,102412.25
2022-11-29T19:23:54.520Z,102420.47
2022-11-29T19:26:22.310Z,102423.91
2022-11-29T19:28:49.967Z,102417.81
2022-11-29T19:31:18.701Z,102422.31
2022-11-29T19:33:45.839Z,102422.31
2022-11-29T19:36:19.820Z,102423.13
2022-11-29T19:38:51.673Z,102423.13
2022-11-29T19:41:23.192Z,102423.69
2022-11-29T19:43:50.509Z,102429.56
2022-11-29T19:46:20.840Z,102430.63
2022-11-29T19:48:48.010Z,102424.03
2022-11-29T19:51:19.175Z,102423.78
2022-11-29T19:53:46.996Z,102438.09
2022-11-29T19:56:17.449Z,102434.66
2022-11-29T19:58:44.398Z,102432.22
2022-11-29T20:01:17.552Z,102433.03
2022-11-29T20:03:47.408Z,102437.53
2022-11-29T20:06:16.129Z,102441.56
2022-11-29T20:08:43.135Z,102438.34
2022-11-29T20:11:11.261Z,102447.13
2022-11-29T20:13:38.876Z,102445.50
2022-11-29T20:16:09.856Z,102445.75
2022-11-29T20:18:39.280Z,102448.38
2022-11-29T20:21:08.132Z,102457.19
2022-11-29T20:23:34.956Z,102452.91
2022-11-29T20:26:01.842Z,102453.69
2022-11-29T20:28:28.424Z,102447.81
2022-11-29T20:30:55.379Z,102449.44
2022-11-29T20:33:23.908Z,102454.75
2022-11-29T20:36:02.237Z,102449.69
2022-11-29T20:38:37.487Z,102456.06
2022-11-29T20:41:14.873Z,102458.72
2022-11-29T20:43:48.039Z,102456.34
2022-11-29T20:46:14.775Z,102453.69
2022-11-29T20:48:41.619Z,102453.69
2022-11-29T20:51:10.973Z,102458.44
2022-11-29T20:53:42.903Z,102462.50
2022-11-29T20:56:11.397Z,102468.63
2022-11-29T20:58:39.050Z,102475.53
2022-11-29T21:01:06.556Z,102472.06
2022-11-29T21:03:33.357Z,102473.03
2022-11-29T21:06:03.014Z,102474.53
2022-11-29T21:08:32.986Z,102475.28
2022-11-29T21:11:08.993Z,102471.97
2022-11-29T21:13:35.785Z,102472.94
2022-11-29T21:16:20.993Z,102477.78
2022-11-29T21:18:59.531Z,102482.91
2022-11-29T21:22:11.252Z,102484.69
2022-11-29T21:25:01.832Z,102489.28
2022-11-29T21:27:32.837Z,102497.16
2022-11-29T21:30:00.693Z,102499.25
2022-11-29T21:32:27.762Z,102497.31
2022-11-29T21:34:54.223Z,102497.75
2022-11-29T21:37:25.029Z,102495.59
2022-11-29T21:39:53.112Z,102501.03
2022-11-29T21:42:20.382Z,102498.25
2022-11-29T21:44:47.453Z,102501.13
2022-11-29T21:47:14.358Z,102505.28
2022-11-29T21:49:40.894Z,102502.06
2022-11-29T21:52:07.662Z,102503.34
2022-11-29T21:54:34.345Z,102504.63
2022-11-29T21:57:01.693Z,102508.56
2022-11-29T21:59:30.159Z,102506.34
2022-11-29T22:01:57.134Z,102510.28
2022-11-29T22:04:23.949Z,102506.25
2022-11-29T22:06:50.841Z,102508.31
2022-11-29T22:09:17.638Z,102509.59
2022-11-29T22:11:44.625Z,102513.50
2022-11-29T22:14:13.739Z,102507.63
2022-11-29T22:16:46.259Z,102517.44
2022-11-29T22:19:14.754Z,102517.66
2022-11-29T22:21:47.002Z,102512.59
2022-11-29T22:24:15.351Z,102511.78
2022-11-29T22:26:43.780Z,102511.78
2022-11-29T22:29:11.414Z,102512.03
2022-11-29T22:31:38.391Z,102514.69
2022-11-29T22:34:05.179Z,102515.69
2022-11-29T22:36:31.842Z,102523.66
2022-11-29T22:38:58.518Z,102522.81
2022-11-29T22:41:25.679Z,102523.03
2022-11-29T22:43:53.033Z,102527.75
2022-11-29T22:46:22.209Z,102533.06
2022-11-29T22:48:52.490Z,102528.56
2022-11-29T22:51:21.743Z,102531.22
2022-11-29T22:53:53.659Z,102529.63
2022-11-29T22:56:21.376Z,102535.72
2022-11-29T22:58:48.121Z,102535.94
2022-11-29T23:01:20.290Z,102535.94
2022-11-29T23:03:54.459Z,102539.66
2022-11-29T23:06:29.453Z,102536.19
2022-11-29T23:08:58.433Z,102540.66
2022-11-29T23:11:27.717Z,102549.44
2022-11-29T23:13:54.996Z,102540.91
2022-11-29T23:16:23.963Z,102546.22
2022-11-29T23:18:50.822Z,102545.38
2022-11-29T23:21:27.027Z,102548.03
2022-11-29T23:23:56.556Z,102544.59
2022-11-29T23:26:26.817Z,102546.44
2022-11-29T23:28:54.821Z,102542.97
2022-11-29T23:31:25.195Z,102542.97
2022-11-29T23:33:51.859Z,102547.47
2022-11-29T23:36:18.859Z,102543.22
2022-11-29T23:38:45.723Z,102551.97
2022-11-29T23:41:12.747Z,102549.53
2022-11-29T23:43:41.075Z,102546.88
2022-11-29T23:46:16.748Z,102548.72
2022-11-29T23:48:43.968Z,102547.13
2022-11-29T23:51:11.309Z,102548.94
2022-11-29T23:53:38.172Z,102547.13
2022-11-29T23:56:08.588Z,102550.78
2022-11-29T23:58:35.069Z,102554.25
